Weifang, China
Current Conditions -  °F | °C
As of 4:00 PM on Monday 20 Oct 2014 (Local Time) from ZSQD Reporting Station
Haze Haze  
Wind Chill: 66°   Ceiling: Unl
Heat Index: 66°   Visibility: 2.8mi
Dew Point: 59°   Wind: 9mph
Humidity: 78%   Direction: 20°NNE
Pressure: 29.97"   Gusts: NA
Location:  36.72°N, 119.1°E
Report Text: ZSQD 200800Z 02004MPS 4500 BR SCT020 19/15 Q1015 NOSIG
Loading
Personal Weather Stations






























Interactive Weather Map
Tropical Storm Tracking
New forecast layout! Learn more

10-Day Weather Forecast

Advertisements
Track Severe Weather on mobile